createdAt,value
2022-08-28T00:00:37.572Z,18.65
2022-08-28T00:03:05.781Z,18.66
2022-08-28T00:05:34.105Z,18.64
2022-08-28T00:08:00.789Z,18.60
2022-08-28T00:10:28.159Z,18.57
2022-08-28T00:12:57.492Z,18.50
2022-08-28T00:15:33.879Z,18.48
2022-08-28T00:18:01.798Z,18.45
2022-08-28T00:20:29.077Z,18.43
2022-08-28T00:25:38.393Z,18.37
2022-08-28T00:28:08.832Z,18.35
2022-08-28T00:30:46.556Z,18.37
2022-08-28T00:33:38.100Z,18.41
2022-08-28T00:36:05.197Z,18.40
2022-08-28T00:38:31.822Z,18.38
2022-08-28T00:41:03.842Z,18.38
2022-08-28T00:43:36.618Z,18.36
2022-08-28T00:46:06.583Z,18.34
2022-08-28T00:48:33.200Z,18.33
2022-08-28T00:51:19.456Z,18.30
2022-08-28T00:53:46.131Z,18.28
2022-08-28T00:56:16.526Z,18.25
2022-08-28T00:58:45.091Z,18.22
2022-08-28T01:01:13.097Z,18.22
2022-08-28T01:03:41.055Z,18.20
2022-08-28T01:06:08.367Z,18.18
2022-08-28T01:08:36.952Z,18.16
2022-08-28T01:11:07.645Z,18.13
2022-08-28T01:13:36.583Z,18.11
2022-08-28T01:16:04.062Z,18.06
2022-08-28T01:18:33.217Z,18.05
2022-08-28T01:21:20.556Z,18.09
2022-08-28T01:23:58.126Z,18.09
2022-08-28T01:26:27.753Z,18.07
2022-08-28T01:28:55.728Z,18.07
2022-08-28T01:31:22.392Z,18.06
2022-08-28T01:33:49.163Z,18.08
2022-08-28T01:36:16.262Z,18.09
2022-08-28T01:38:45.578Z,18.09
2022-08-28T01:41:14.054Z,18.06
2022-08-28T01:43:41.699Z,18.05
2022-08-28T01:46:09.889Z,18.04
2022-08-28T01:48:39.931Z,18.04
2022-08-28T01:51:06.866Z,18.01
2022-08-28T01:53:33.778Z,18.02
2022-08-28T01:56:02.907Z,17.99
2022-08-28T01:58:37.556Z,17.98
2022-08-28T02:01:10.609Z,17.95
2022-08-28T02:03:37.377Z,17.98
2022-08-28T02:06:04.806Z,17.97
2022-08-28T02:08:31.832Z,17.97
2022-08-28T02:10:59.008Z,17.97
2022-08-28T02:13:25.723Z,17.96
2022-08-28T02:15:52.684Z,17.93
2022-08-28T02:18:19.438Z,17.92
2022-08-28T02:20:46.626Z,17.91
2022-08-28T02:23:13.833Z,17.92
2022-08-28T02:25:40.761Z,17.93
2022-08-28T02:28:07.518Z,17.93
2022-08-28T02:30:35.443Z,17.92
2022-08-28T02:33:02.579Z,17.90
2022-08-28T02:35:29.964Z,17.89
2022-08-28T02:37:57.021Z,17.87
2022-08-28T02:40:24.603Z,17.87
2022-08-28T02:42:52.269Z,17.85
2022-08-28T02:45:19.793Z,17.82
2022-08-28T02:47:47.855Z,17.82
2022-08-28T02:50:17.050Z,17.83
2022-08-28T02:52:44.070Z,17.83
2022-08-28T02:55:12.599Z,17.81
2022-08-28T02:57:39.812Z,17.80
2022-08-28T03:00:11.733Z,17.78
2022-08-28T03:02:39.666Z,17.78
2022-08-28T03:05:06.499Z,17.75
2022-08-28T03:07:33.203Z,17.73
2022-08-28T03:09:59.762Z,17.71
2022-08-28T03:12:26.442Z,17.69
2022-08-28T03:14:54.490Z,17.68
2022-08-28T03:17:22.164Z,17.66
2022-08-28T03:19:50.182Z,17.64
2022-08-28T03:22:39.607Z,17.65
2022-08-28T03:25:06.919Z,17.66
2022-08-28T03:27:33.618Z,17.67
2022-08-28T03:30:00.199Z,17.71
2022-08-28T03:32:26.872Z,17.71
2022-08-28T03:34:56.990Z,17.71
2022-08-28T03:37:23.605Z,17.70
2022-08-28T03:39:50.372Z,17.69
2022-08-28T03:42:17.286Z,17.67
2022-08-28T03:44:44.087Z,17.68
2022-08-28T03:47:12.278Z,17.69
2022-08-28T03:49:39.842Z,17.70
2022-08-28T03:52:08.790Z,17.70
2022-08-28T03:54:35.320Z,17.69
2022-08-28T03:57:01.820Z,17.69
2022-08-28T03:59:31.754Z,17.69
2022-08-28T04:02:00.409Z,17.68
2022-08-28T04:04:26.922Z,17.68
2022-08-28T04:06:53.514Z,17.70
2022-08-28T04:09:20.116Z,17.70
2022-08-28T04:11:46.630Z,17.72
2022-08-28T04:14:13.119Z,17.73
2022-08-28T04:16:39.806Z,17.76
2022-08-28T04:19:06.318Z,17.78
2022-08-28T04:21:32.820Z,17.79
2022-08-28T04:23:59.326Z,17.82
2022-08-28T04:26:27.906Z,17.84
2022-08-28T04:28:56.149Z,17.87
2022-08-28T04:31:32.208Z,17.89
2022-08-28T04:34:05.117Z,17.93
2022-08-28T04:36:32.786Z,17.95
2022-08-28T04:38:59.701Z,17.97
2022-08-28T04:41:26.732Z,17.99
2022-08-28T04:43:53.926Z,18.02
2022-08-28T04:46:20.581Z,18.05
2022-08-28T04:48:47.201Z,18.08
2022-08-28T04:51:15.153Z,18.13
2022-08-28T04:53:42.671Z,18.17
2022-08-28T04:56:12.722Z,18.20
2022-08-28T04:58:40.606Z,18.27
2022-08-28T05:01:13.959Z,18.33
2022-08-28T05:03:40.978Z,18.39
2022-08-28T05:06:08.171Z,18.45
2022-08-28T05:08:34.962Z,18.51
2022-08-28T05:11:30.738Z,18.57
2022-08-28T05:14:02.432Z,18.63
2022-08-28T05:16:29.084Z,18.72
2022-08-28T05:19:00.397Z,18.82
2022-08-28T05:21:28.295Z,18.88
2022-08-28T05:23:57.547Z,18.92
2022-08-28T05:26:27.148Z,18.96
2022-08-28T05:28:58.876Z,18.99
2022-08-28T05:31:27.718Z,19.07
2022-08-28T05:33:54.355Z,19.09
2022-08-28T05:36:23.227Z,19.17
2022-08-28T05:38:57.103Z,19.19
2022-08-28T05:41:28.385Z,19.17
2022-08-28T05:43:54.934Z,19.19
2022-08-28T05:46:22.391Z,19.25
2022-08-28T05:48:49.416Z,19.29
2022-08-28T05:51:19.462Z,19.35
2022-08-28T05:53:47.931Z,19.38
2022-08-28T05:56:17.552Z,19.45
2022-08-28T05:58:44.131Z,19.49
2022-08-28T06:01:20.085Z,19.57
2022-08-28T06:04:01.596Z,19.60
2022-08-28T06:06:30.363Z,19.69
2022-08-28T06:08:59.473Z,19.77
2022-08-28T06:11:30.424Z,19.83
2022-08-28T06:14:02.744Z,19.95
2022-08-28T06:16:31.301Z,20.04
2022-08-28T06:18:58.471Z,20.14
2022-08-28T06:21:25.075Z,20.13
2022-08-28T06:23:51.966Z,20.25
2022-08-28T06:26:18.863Z,20.38
2022-08-28T06:28:45.442Z,20.48
2022-08-28T06:31:23.263Z,20.44
2022-08-28T06:33:50.893Z,20.46
2022-08-28T06:36:17.512Z,20.57
2022-08-28T06:38:46.667Z,20.61
2022-08-28T06:41:14.344Z,20.70
2022-08-28T06:43:41.502Z,20.83
2022-08-28T06:46:08.182Z,20.79
2022-08-28T06:48:34.856Z,20.87
2022-08-28T06:51:01.705Z,20.97
2022-08-28T06:53:30.510Z,21.14
2022-08-28T06:56:07.238Z,21.15
2022-08-28T06:58:35.313Z,21.26
2022-08-28T07:01:08.027Z,21.26
2022-08-28T07:03:35.050Z,21.32
2022-08-28T07:06:04.778Z,21.30
2022-08-28T07:08:32.338Z,21.45
2022-08-28T07:10:59.493Z,21.67
2022-08-28T07:13:29.122Z,21.88
2022-08-28T07:15:57.821Z,22.08
2022-08-28T07:18:24.352Z,22.29
2022-08-28T07:20:58.785Z,22.39
2022-08-28T07:23:26.107Z,22.40
2022-08-28T07:25:52.626Z,22.54
2022-08-28T07:28:19.508Z,22.60
2022-08-28T07:30:46.353Z,22.77
2022-08-28T07:33:12.911Z,22.80
2022-08-28T07:35:43.497Z,22.82
2022-08-28T07:38:10.014Z,23.13
2022-08-28T07:40:36.670Z,23.27
2022-08-28T07:43:21.882Z,23.15
2022-08-28T07:45:57.915Z,22.93
2022-08-28T07:48:24.876Z,23.01
2022-08-28T07:50:51.456Z,22.90
2022-08-28T07:53:18.132Z,22.78
2022-08-28T07:55:45.757Z,22.85
2022-08-28T07:58:13.791Z,22.77
2022-08-28T08:00:41.429Z,22.69
2022-08-28T08:03:08.109Z,22.53
2022-08-28T08:05:34.714Z,22.54
2022-08-28T08:08:01.423Z,22.67
2022-08-28T08:10:27.965Z,22.92
2022-08-28T08:13:00.900Z,23.32
2022-08-28T08:15:31.199Z,23.54
2022-08-28T08:17:57.958Z,23.70
2022-08-28T08:20:24.491Z,23.79
2022-08-28T08:22:51.057Z,23.80
2022-08-28T08:25:17.757Z,23.85
2022-08-28T08:27:44.374Z,24.02
2022-08-28T08:30:11.707Z,23.97
2022-08-28T08:32:40.134Z,23.89
2022-08-28T08:35:07.121Z,23.91
2022-08-28T08:37:33.653Z,24.01
2022-08-28T08:40:00.405Z,24.14
2022-08-28T08:42:33.233Z,24.30
2022-08-28T08:45:04.199Z,24.46
2022-08-28T08:47:43.047Z,24.39
2022-08-28T08:50:17.320Z,24.57
2022-08-28T08:53:11.449Z,24.68
2022-08-28T08:55:50.993Z,24.88
2022-08-28T08:58:28.711Z,24.92
2022-08-28T09:01:11.602Z,25.06
2022-08-28T09:04:00.777Z,24.81
2022-08-28T09:06:46.428Z,24.77
2022-08-28T09:09:32.180Z,25.02
2022-08-28T09:12:05.387Z,25.15
2022-08-28T09:15:08.883Z,24.79
2022-08-28T09:17:57.434Z,24.71
2022-08-28T09:20:32.327Z,24.83
2022-08-28T09:23:02.021Z,24.91
2022-08-28T09:25:54.773Z,24.94
2022-08-28T09:28:30.908Z,25.27
2022-08-28T09:31:13.767Z,25.70
2022-08-28T09:33:52.368Z,26.28
2022-08-28T09:36:26.257Z,27.14
2022-08-28T09:39:21.939Z,28.45
2022-08-28T09:42:25.135Z,29.38
2022-08-28T09:45:10.117Z,29.31
2022-08-28T09:47:56.010Z,30.07
2022-08-28T09:50:32.957Z,30.46
2022-08-28T09:53:20.796Z,30.22
2022-08-28T09:55:56.292Z,30.48
2022-08-28T09:58:36.451Z,30.09
2022-08-28T10:01:14.867Z,29.21
2022-08-28T10:03:53.371Z,28.76
2022-08-28T10:06:33.293Z,28.36
2022-08-28T10:09:15.062Z,28.06
2022-08-28T10:11:56.553Z,28.20
2022-08-28T10:14:38.449Z,28.26
2022-08-28T10:17:16.765Z,28.10
2022-08-28T10:20:43.195Z,28.29
2022-08-28T10:23:31.577Z,28.44
2022-08-28T10:26:33.292Z,28.76
2022-08-28T10:29:15.810Z,29.76
2022-08-28T10:32:09.986Z,29.43
2022-08-28T10:34:44.229Z,28.48
2022-08-28T10:37:17.829Z,28.30
2022-08-28T10:39:53.052Z,28.49
2022-08-28T10:42:27.834Z,28.87
2022-08-28T10:45:19.159Z,27.87
2022-08-28T10:48:00.495Z,26.95
2022-08-28T10:50:43.008Z,26.70
2022-08-28T10:53:38.023Z,26.15
2022-08-28T10:56:12.529Z,25.70
2022-08-28T10:58:41.043Z,25.42
2022-08-28T11:01:27.926Z,24.99
2022-08-28T11:03:57.311Z,24.79
2022-08-28T11:06:35.935Z,24.68
2022-08-28T11:09:24.930Z,24.39
2022-08-28T11:12:21.587Z,24.24
2022-08-28T11:14:51.162Z,24.28
2022-08-28T11:17:25.240Z,24.08
2022-08-28T11:20:12.374Z,23.92
2022-08-28T11:22:45.512Z,23.79
2022-08-28T11:25:18.912Z,23.57
2022-08-28T11:28:14.150Z,23.64
2022-08-28T11:30:42.862Z,23.67
2022-08-28T11:33:52.764Z,23.85
2022-08-28T11:36:22.095Z,24.16
2022-08-28T11:38:51.609Z,24.34
2022-08-28T11:41:36.491Z,24.78
2022-08-28T11:44:15.112Z,25.45
2022-08-28T11:46:44.488Z,25.45
2022-08-28T11:49:29.215Z,25.45
2022-08-28T11:52:23.413Z,25.45
2022-08-28T11:55:12.308Z,25.63
2022-08-28T12:00:54.297Z,25.76
2022-08-28T12:03:37.366Z,25.65
2022-08-28T12:06:04.977Z,25.62
2022-08-28T12:08:51.275Z,25.37
2022-08-28T12:11:48.341Z,25.24
2022-08-28T12:14:27.553Z,25.03
2022-08-28T12:17:00.200Z,25.10
2022-08-28T12:19:41.545Z,25.13
2022-08-28T12:22:25.846Z,24.83
2022-08-28T12:24:57.573Z,24.74
2022-08-28T12:27:24.590Z,24.57
2022-08-28T12:29:55.583Z,24.42
2022-08-28T12:32:57.210Z,24.54
2022-08-28T12:35:29.578Z,24.39
2022-08-28T12:37:57.414Z,24.24
2022-08-28T12:40:50.250Z,24.01
2022-08-28T12:43:35.826Z,23.93
2022-08-28T12:46:19.727Z,23.86
2022-08-28T12:48:54.140Z,23.68
2022-08-28T12:51:27.782Z,23.57
2022-08-28T12:53:57.443Z,23.39
2022-08-28T12:56:26.099Z,23.17
2022-08-28T12:58:53.891Z,23.14
2022-08-28T13:01:31.545Z,23.06
2022-08-28T13:04:02.554Z,22.87
2022-08-28T13:06:39.643Z,22.61
2022-08-28T13:09:15.608Z,22.53
2022-08-28T13:11:49.227Z,22.08
2022-08-28T13:14:44.090Z,21.71
2022-08-28T13:17:14.314Z,21.42
2022-08-28T13:19:41.433Z,21.29
2022-08-28T13:22:29.688Z,21.27
2022-08-28T13:25:01.069Z,21.29
2022-08-28T13:27:31.153Z,21.34
2022-08-28T13:30:02.873Z,21.28
2022-08-28T13:32:34.370Z,21.43
2022-08-28T13:35:24.934Z,21.43
2022-08-28T13:37:57.391Z,21.42
2022-08-28T13:40:56.214Z,21.26
2022-08-28T13:43:18.252Z,21.08
2022-08-28T13:45:46.222Z,20.85
2022-08-28T13:48:15.734Z,20.68
2022-08-28T13:50:46.944Z,20.35
2022-08-28T13:53:15.687Z,19.99
2022-08-28T13:55:42.422Z,19.73
2022-08-28T13:58:08.947Z,19.56
2022-08-28T14:00:41.097Z,19.36
2022-08-28T14:03:26.180Z,19.22
2022-08-28T14:05:53.158Z,19.02
2022-08-28T14:08:19.650Z,18.89
2022-08-28T14:10:46.565Z,18.85
2022-08-28T14:13:13.281Z,18.87
2022-08-28T14:15:40.153Z,18.86
2022-08-28T14:18:06.771Z,18.79
2022-08-28T14:20:33.330Z,18.68
2022-08-28T14:22:59.870Z,18.69
2022-08-28T14:25:27.728Z,18.66
2022-08-28T14:27:55.810Z,18.67
2022-08-28T14:30:24.049Z,18.57
2022-08-28T14:32:50.590Z,18.52
2022-08-28T14:35:17.113Z,18.49
2022-08-28T14:37:43.652Z,18.41
2022-08-28T14:40:12.679Z,18.30
2022-08-28T14:42:39.505Z,18.30
2022-08-28T14:45:06.510Z,18.30
2022-08-28T14:47:33.078Z,18.30
2022-08-28T14:49:59.616Z,18.32
2022-08-28T14:52:26.513Z,18.29
2022-08-28T14:54:53.294Z,18.29
2022-08-28T14:57:19.854Z,18.42
2022-08-28T14:59:46.780Z,18.50
2022-08-28T15:02:13.630Z,18.48
2022-08-28T15:04:40.198Z,18.44
2022-08-28T15:07:10.891Z,18.43
2022-08-28T15:09:40.589Z,18.56
2022-08-28T15:12:08.784Z,18.64
2022-08-28T15:14:36.087Z,18.68
2022-08-28T15:17:04.491Z,18.66
2022-08-28T15:19:31.243Z,18.66
2022-08-28T15:21:58.738Z,18.65
2022-08-28T15:24:31.574Z,18.62
2022-08-28T15:26:59.627Z,18.69
2022-08-28T15:29:30.027Z,18.67
2022-08-28T15:31:57.490Z,18.64
2022-08-28T15:34:26.668Z,18.61
2022-08-28T15:36:54.761Z,18.55
2022-08-28T15:39:45.454Z,18.52
2022-08-28T15:42:12.449Z,18.48
2022-08-28T15:44:40.059Z,18.41
2022-08-28T15:47:07.333Z,18.33
2022-08-28T15:49:43.620Z,18.30
2022-08-28T15:52:15.564Z,18.22
2022-08-28T15:54:42.847Z,18.17
2022-08-28T15:57:09.550Z,18.08
2022-08-28T15:59:48.334Z,18.04
2022-08-28T16:02:17.936Z,18.03
2022-08-28T16:04:44.472Z,18.14
2022-08-28T16:07:11.142Z,18.12
2022-08-28T16:09:37.826Z,18.07
2022-08-28T16:12:04.709Z,18.08
2022-08-28T16:14:32.839Z,18.09
2022-08-28T16:17:05.985Z,18.10
2022-08-28T16:19:37.895Z,18.00
2022-08-28T16:22:05.168Z,18.02
2022-08-28T16:24:31.780Z,18.02
2022-08-28T16:26:58.386Z,17.95
2022-08-28T16:29:24.915Z,17.95
2022-08-28T16:31:51.786Z,17.98
2022-08-28T16:34:19.641Z,18.02
2022-08-28T16:36:50.400Z,18.05
2022-08-28T16:39:17.038Z,18.03
2022-08-28T16:41:49.657Z,18.08
2022-08-28T16:44:21.158Z,18.06
2022-08-28T16:46:47.883Z,18.08
2022-08-28T16:49:15.125Z,18.01
2022-08-28T16:51:41.663Z,17.97
2022-08-28T16:54:08.276Z,17.93
2022-08-28T16:56:34.905Z,17.92
2022-08-28T16:59:01.415Z,17.91
2022-08-28T17:01:28.066Z,17.90
2022-08-28T17:03:55.165Z,17.89
2022-08-28T17:06:25.526Z,17.87
2022-08-28T17:08:56.673Z,17.86
2022-08-28T17:11:25.683Z,17.85
2022-08-28T17:13:52.320Z,17.84
2022-08-28T17:16:20.547Z,17.81
2022-08-28T17:18:52.025Z,17.83
2022-08-28T17:21:37.815Z,17.80
2022-08-28T17:24:04.566Z,17.80
2022-08-28T17:26:31.060Z,17.79
2022-08-28T17:28:57.590Z,17.81
2022-08-28T17:31:24.229Z,17.79
2022-08-28T17:33:50.891Z,17.78
2022-08-28T17:36:32.386Z,17.80
2022-08-28T17:39:00.283Z,17.76
2022-08-28T17:41:27.620Z,17.74
2022-08-28T17:43:54.339Z,17.71
2022-08-28T17:46:20.951Z,17.73
2022-08-28T17:48:55.697Z,17.71
2022-08-28T17:51:42.823Z,17.69
2022-08-28T17:54:16.760Z,17.66
2022-08-28T17:56:43.892Z,17.65
2022-08-28T17:59:11.669Z,17.60
2022-08-28T18:01:38.669Z,17.59
2022-08-28T18:04:05.768Z,17.57
2022-08-28T18:06:33.074Z,17.52
2022-08-28T18:09:00.470Z,17.49
2022-08-28T18:11:27.433Z,17.46
2022-08-28T18:13:54.171Z,17.47
2022-08-28T18:16:20.923Z,17.44
2022-08-28T18:18:47.606Z,17.46
2022-08-28T18:21:14.943Z,17.43
2022-08-28T18:23:41.524Z,17.44
2022-08-28T18:26:08.520Z,17.61
2022-08-28T18:28:36.695Z,17.63
2022-08-28T18:31:05.712Z,17.65
2022-08-28T18:33:35.305Z,17.68
2022-08-28T18:36:02.037Z,17.70
2022-08-28T18:38:28.667Z,17.68
2022-08-28T18:40:58.197Z,17.66
2022-08-28T18:43:24.720Z,17.72
2022-08-28T18:45:51.455Z,17.65
2022-08-28T18:48:19.262Z,17.56
2022-08-28T18:50:49.963Z,17.55
2022-08-28T18:53:19.883Z,17.65
2022-08-28T18:55:46.402Z,17.69
2022-08-28T18:58:14.974Z,17.57
2022-08-28T19:00:42.164Z,17.51
2022-08-28T19:03:09.263Z,17.49
2022-08-28T19:05:37.682Z,17.51
2022-08-28T19:08:04.765Z,17.62
2022-08-28T19:10:34.389Z,17.67
2022-08-28T19:13:01.944Z,17.53
2022-08-28T19:15:29.115Z,17.46
2022-08-28T19:17:56.200Z,17.44
2022-08-28T19:20:23.719Z,17.50
2022-08-28T19:22:50.317Z,17.55
2022-08-28T19:25:27.474Z,17.55
2022-08-28T19:27:56.256Z,17.46
2022-08-28T19:30:25.780Z,17.43
2022-08-28T19:32:52.428Z,17.43
2022-08-28T19:35:19.114Z,17.42
2022-08-28T19:37:45.777Z,17.55
2022-08-28T19:40:13.493Z,17.62
2022-08-28T19:42:42.134Z,17.56
2022-08-28T19:45:12.528Z,17.48
2022-08-28T19:47:39.484Z,17.45
2022-08-28T19:50:08.687Z,17.42
2022-08-28T19:52:36.448Z,17.44
2022-08-28T19:55:05.827Z,17.58
2022-08-28T19:57:33.819Z,17.60
2022-08-28T20:00:00.779Z,17.52
2022-08-28T20:02:29.461Z,17.48
2022-08-28T20:04:56.253Z,17.44
2022-08-28T20:07:24.391Z,17.42
2022-08-28T20:09:51.855Z,17.40
2022-08-28T20:12:22.240Z,17.39
2022-08-28T20:14:49.359Z,17.37
2022-08-28T20:17:17.746Z,17.36
2022-08-28T20:19:46.174Z,17.35
2022-08-28T20:22:12.727Z,17.35
2022-08-28T20:24:39.450Z,17.35
2022-08-28T20:27:06.114Z,17.33
2022-08-28T20:29:36.351Z,17.32
2022-08-28T20:32:03.487Z,17.32
2022-08-28T20:34:30.034Z,17.33
2022-08-28T20:36:56.579Z,17.31
2022-08-28T20:39:23.452Z,17.29
2022-08-28T20:41:50.104Z,17.27
2022-08-28T20:44:19.076Z,17.26
2022-08-28T20:46:51.591Z,17.24
2022-08-28T20:49:23.833Z,17.24
2022-08-28T20:51:53.450Z,17.22
2022-08-28T20:54:35.903Z,17.20
2022-08-28T20:57:07.791Z,17.18
2022-08-28T20:59:39.939Z,17.16
2022-08-28T21:02:10.632Z,17.13
2022-08-28T21:04:39.697Z,17.11
2022-08-28T21:07:06.372Z,17.11
2022-08-28T21:09:43.954Z,17.10
2022-08-28T21:12:20.039Z,17.08
2022-08-28T21:14:51.395Z,17.06
2022-08-28T21:17:22.679Z,17.05
2022-08-28T21:19:57.369Z,17.02
2022-08-28T21:22:24.942Z,16.98
2022-08-28T21:24:51.677Z,16.97
2022-08-28T21:27:18.772Z,16.95
2022-08-28T21:29:46.155Z,16.93
2022-08-28T21:32:13.041Z,16.95
2022-08-28T21:34:39.744Z,16.90
2022-08-28T21:37:06.575Z,16.87
2022-08-28T21:39:33.442Z,16.84
2022-08-28T21:42:00.132Z,16.80
2022-08-28T21:44:26.694Z,16.78
2022-08-28T21:46:53.259Z,16.77
2022-08-28T21:49:20.153Z,16.70
2022-08-28T21:51:47.304Z,16.69
2022-08-28T21:54:14.219Z,16.65
2022-08-28T21:56:41.061Z,16.63
2022-08-28T21:59:07.623Z,16.60
2022-08-28T22:01:34.343Z,16.57
2022-08-28T22:04:01.138Z,16.56
2022-08-28T22:06:27.700Z,16.51
2022-08-28T22:08:55.805Z,16.49
2022-08-28T22:11:25.183Z,16.44
2022-08-28T22:13:52.383Z,16.39
2022-08-28T22:16:19.128Z,16.36
2022-08-28T22:18:45.678Z,16.32
2022-08-28T22:21:34.103Z,16.25
2022-08-28T22:24:01.484Z,16.19
2022-08-28T22:26:29.454Z,16.15
2022-08-28T22:28:56.287Z,16.12
2022-08-28T22:31:23.776Z,16.07
2022-08-28T22:33:51.180Z,16.03
2022-08-28T22:36:17.889Z,16.00
2022-08-28T22:38:47.153Z,15.96
2022-08-28T22:41:20.255Z,15.91
2022-08-28T22:43:50.972Z,15.87
2022-08-28T22:46:20.493Z,15.82
2022-08-28T22:48:47.683Z,15.76
2022-08-28T22:51:18.291Z,15.68
2022-08-28T22:53:45.446Z,15.60
2022-08-28T22:56:12.272Z,15.55
2022-08-28T22:58:39.359Z,15.46
2022-08-28T23:01:19.710Z,15.40
2022-08-28T23:03:46.786Z,15.37
2022-08-28T23:06:13.959Z,15.32
2022-08-28T23:08:40.692Z,15.27
2022-08-28T23:11:07.409Z,15.22
2022-08-28T23:13:34.033Z,15.19
2022-08-28T23:16:01.556Z,15.13
2022-08-28T23:18:29.107Z,15.10
2022-08-28T23:20:56.055Z,15.04
2022-08-28T23:23:25.418Z,14.97
2022-08-28T23:25:52.016Z,14.91
2022-08-28T23:28:19.964Z,14.84
2022-08-28T23:30:48.498Z,14.77
2022-08-28T23:33:23.588Z,14.73
2022-08-28T23:35:50.633Z,14.68
2022-08-28T23:38:17.152Z,14.62
2022-08-28T23:40:44.385Z,14.58
2022-08-28T23:43:11.545Z,14.54
2022-08-28T23:45:42.254Z,14.48
2022-08-28T23:48:09.167Z,14.43
2022-08-28T23:50:36.257Z,14.39
2022-08-28T23:53:04.012Z,14.36
2022-08-28T23:55:30.981Z,14.31
2022-08-28T23:58:00.326Z,14.27
